Terminal Aerodrome Forecast
Issued by NWS

Home | Current Version | Previous Version | Text Only | Print | Product List | Glossary On
Versions: 1 2 3 4 5 6 7 8 9 10 11 12 13 14
000
FTUS45 KVEF 202300
TAFBIH
TAF
KBIH 202320Z 2100/2124 17015G25KT P6SM SCT120 SCT250
     FM210200 15010KT P6SM SCT120 SCT250
     FM210600 35007KT P6SM FEW250=

USA.gov is the U.S. government's official web portal to all federal, state and local government web resources and services.